createdAt,value
2022-12-23T00:00:40.770Z,118.99
2022-12-23T00:03:08.044Z,118.99
2022-12-23T00:05:39.547Z,118.99
2022-12-23T00:08:07.749Z,118.99
2022-12-23T00:10:38.346Z,118.99
2022-12-23T00:13:23.685Z,118.99
2022-12-23T00:15:50.741Z,118.99
2022-12-23T00:18:17.648Z,118.99
2022-12-23T00:20:44.493Z,118.99
2022-12-23T00:23:11.268Z,118.99
2022-12-23T00:25:42.391Z,118.99
2022-12-23T00:28:17.610Z,118.99
2022-12-23T00:30:50.056Z,118.99
2022-12-23T00:33:19.164Z,118.99
2022-12-23T00:35:47.134Z,118.99
2022-12-23T00:38:14.996Z,118.99
2022-12-23T00:41:00.555Z,118.99
2022-12-23T00:43:28.072Z,118.99
2022-12-23T00:45:55.195Z,118.99
2022-12-23T00:48:40.697Z,118.99
2022-12-23T00:51:07.512Z,118.98
2022-12-23T00:53:34.415Z,118.94
2022-12-23T00:56:01.291Z,118.57
2022-12-23T00:58:28.399Z,118.60
2022-12-23T01:01:13.845Z,118.84
2022-12-23T01:03:59.425Z,118.57
2022-12-23T01:06:26.182Z,118.74
2022-12-23T01:08:53.106Z,118.99
2022-12-23T01:11:20.055Z,118.99
2022-12-23T01:13:46.832Z,118.84
2022-12-23T01:16:17.579Z,118.99
2022-12-23T01:18:45.155Z,118.90
2022-12-23T01:21:12.609Z,118.99
2022-12-23T01:23:39.608Z,118.99
2022-12-23T01:26:08.449Z,118.99
2022-12-23T01:28:36.415Z,118.99
2022-12-23T01:31:06.059Z,118.99
2022-12-23T01:33:33.617Z,118.99
2022-12-23T01:36:06.715Z,118.99
2022-12-23T01:38:35.061Z,118.99
2022-12-23T01:41:01.890Z,118.99
2022-12-23T01:43:52.096Z,118.99
2022-12-23T01:46:19.127Z,118.99
2022-12-23T01:48:51.715Z,118.99
2022-12-23T01:51:27.871Z,118.99
2022-12-23T01:53:59.632Z,118.99
2022-12-23T01:56:31.161Z,118.99
2022-12-23T01:59:05.128Z,118.99
2022-12-23T02:01:50.705Z,118.99
2022-12-23T02:04:20.655Z,118.99
2022-12-23T02:07:08.469Z,118.99
2022-12-23T02:09:40.241Z,118.99
2022-12-23T02:12:24.947Z,118.99
2022-12-23T02:15:32.439Z,118.99
2022-12-23T02:18:30.819Z,118.99
2022-12-23T02:21:31.806Z,118.99
2022-12-23T02:24:04.558Z,118.99
2022-12-23T02:27:08.603Z,118.99
2022-12-23T02:30:00.879Z,118.99
2022-12-23T02:32:48.068Z,118.99
2022-12-23T02:35:48.089Z,118.99
2022-12-23T02:38:25.838Z,118.99
2022-12-23T02:41:04.799Z,118.99
2022-12-23T02:43:36.234Z,118.99
2022-12-23T02:46:06.123Z,118.99
2022-12-23T02:48:53.226Z,118.99
2022-12-23T02:51:24.873Z,118.99
2022-12-23T02:53:56.887Z,118.99
2022-12-23T02:56:24.472Z,118.99
2022-12-23T02:58:56.750Z,118.99
2022-12-23T03:01:26.087Z,118.99
2022-12-23T03:03:53.635Z,118.99
2022-12-23T03:06:30.441Z,118.99
2022-12-23T03:08:59.441Z,118.99
2022-12-23T03:11:56.242Z,118.99
2022-12-23T03:14:34.977Z,118.99
2022-12-23T03:17:26.071Z,118.99
2022-12-23T03:20:03.415Z,118.99
2022-12-23T03:22:54.116Z,118.99
2022-12-23T03:25:21.019Z,118.99
2022-12-23T03:27:52.431Z,118.99
2022-12-23T03:30:20.786Z,118.99
2022-12-23T03:32:52.433Z,118.99
2022-12-23T03:35:24.269Z,118.99
2022-12-23T03:37:53.496Z,118.99
2022-12-23T03:40:27.608Z,118.99
2022-12-23T03:43:20.143Z,118.99
2022-12-23T03:45:56.663Z,118.99
2022-12-23T03:48:29.747Z,118.99
2022-12-23T03:51:01.086Z,118.99
2022-12-23T03:53:32.548Z,118.99
2022-12-23T03:56:06.550Z,118.99
2022-12-23T03:58:45.151Z,118.99
2022-12-23T04:01:33.780Z,118.99
2022-12-23T04:04:25.487Z,118.99
2022-12-23T04:06:59.275Z,118.99
2022-12-23T04:09:28.520Z,118.99
2022-12-23T04:11:58.106Z,118.99
2022-12-23T04:14:24.857Z,118.99
2022-12-23T04:16:55.498Z,118.99
2022-12-23T04:19:22.851Z,118.99
2022-12-23T04:21:49.874Z,118.99
2022-12-23T04:24:16.690Z,118.99
2022-12-23T04:26:43.525Z,118.99
2022-12-23T04:29:10.360Z,118.99
2022-12-23T04:31:37.165Z,118.99
2022-12-23T04:34:04.086Z,118.99
2022-12-23T04:36:30.910Z,118.99
2022-12-23T04:38:57.654Z,118.99
2022-12-23T04:41:24.515Z,118.99
2022-12-23T04:43:53.393Z,118.99
2022-12-23T04:46:20.856Z,118.99
2022-12-23T04:48:47.799Z,118.99
2022-12-23T04:51:14.685Z,118.99
2022-12-23T04:53:41.546Z,118.99
2022-12-23T04:56:08.358Z,118.99
2022-12-23T04:58:35.266Z,118.99
2022-12-23T05:01:04.595Z,118.99
2022-12-23T05:03:31.813Z,118.99
2022-12-23T05:05:58.685Z,118.99
2022-12-23T05:08:25.537Z,118.99
2022-12-23T05:10:52.373Z,118.99
2022-12-23T05:13:19.101Z,118.99
2022-12-23T05:15:46.882Z,118.99
2022-12-23T05:18:13.608Z,118.99
2022-12-23T05:20:40.385Z,118.99
2022-12-23T05:23:07.511Z,118.99
2022-12-23T05:25:36.018Z,118.99
2022-12-23T05:28:03.210Z,118.99
2022-12-23T05:30:30.296Z,118.99
2022-12-23T05:32:57.561Z,118.99
2022-12-23T05:35:25.511Z,118.99
2022-12-23T05:37:52.927Z,118.99
2022-12-23T05:40:23.762Z,118.99
2022-12-23T05:42:52.685Z,118.99
2022-12-23T05:45:19.636Z,118.99
2022-12-23T05:47:46.674Z,118.99
2022-12-23T05:50:14.649Z,118.99
2022-12-23T05:52:41.381Z,118.99
2022-12-23T05:55:08.949Z,118.99
2022-12-23T05:57:35.776Z,118.99
2022-12-23T06:00:04.204Z,118.99
2022-12-23T06:02:31.230Z,118.99
2022-12-23T06:04:58.227Z,118.99
2022-12-23T06:07:24.953Z,118.99
2022-12-23T06:09:51.666Z,118.99
2022-12-23T06:12:18.442Z,118.99
2022-12-23T06:14:45.111Z,118.99
2022-12-23T06:17:11.743Z,118.99
2022-12-23T06:19:38.550Z,118.99
2022-12-23T06:22:05.309Z,118.99
2022-12-23T06:24:32.042Z,118.99
2022-12-23T06:26:58.784Z,118.99
2022-12-23T06:29:25.560Z,118.99
2022-12-23T06:31:52.485Z,118.99
2022-12-23T06:34:19.252Z,118.99
2022-12-23T06:36:46.037Z,118.99
2022-12-23T06:39:13.153Z,118.99
2022-12-23T06:41:39.919Z,118.99
2022-12-23T06:44:07.006Z,118.99
2022-12-23T06:46:34.065Z,118.99
2022-12-23T06:49:00.882Z,118.99
2022-12-23T06:51:27.631Z,118.99
2022-12-23T06:53:54.815Z,118.99
2022-12-23T06:56:22.153Z,118.99
2022-12-23T06:58:48.899Z,118.99
2022-12-23T07:01:15.734Z,118.99
2022-12-23T07:03:42.654Z,118.99
2022-12-23T07:06:09.550Z,118.99
2022-12-23T07:08:36.706Z,118.99
2022-12-23T07:11:05.028Z,118.99
2022-12-23T07:13:33.094Z,118.99
2022-12-23T07:16:04.769Z,118.99
2022-12-23T07:18:31.675Z,118.99
2022-12-23T07:21:00.792Z,118.99
2022-12-23T07:23:27.728Z,118.99
2022-12-23T07:25:55.701Z,118.99
2022-12-23T07:28:23.540Z,118.99
2022-12-23T07:30:50.341Z,118.99
2022-12-23T07:33:17.125Z,118.99
2022-12-23T07:35:43.830Z,118.99
2022-12-23T07:38:10.965Z,118.99
2022-12-23T07:40:37.755Z,118.99
2022-12-23T07:43:05.578Z,118.99
2022-12-23T07:45:32.465Z,118.99
2022-12-23T07:48:01.010Z,118.99
2022-12-23T07:50:28.435Z,118.99
2022-12-23T07:52:55.661Z,118.99
2022-12-23T07:55:22.623Z,118.99
2022-12-23T07:57:50.604Z,118.99
2022-12-23T08:00:18.080Z,118.99
2022-12-23T08:02:45.341Z,118.99
2022-12-23T08:05:13.404Z,118.99
2022-12-23T08:07:40.225Z,118.99
2022-12-23T08:10:07.801Z,118.99
2022-12-23T08:12:34.622Z,118.99
2022-12-23T08:15:01.332Z,118.99
2022-12-23T08:17:29.866Z,118.99
2022-12-23T08:19:57.038Z,118.99
2022-12-23T08:22:24.132Z,118.99
2022-12-23T08:24:51.023Z,118.99
2022-12-23T08:27:18.028Z,118.99
2022-12-23T08:29:44.845Z,118.99
2022-12-23T08:32:11.843Z,118.99
2022-12-23T08:34:38.663Z,118.99
2022-12-23T08:37:05.775Z,118.99
2022-12-23T08:39:32.700Z,118.99
2022-12-23T08:41:59.673Z,118.99
2022-12-23T08:44:29.785Z,118.99
2022-12-23T08:46:56.597Z,118.99
2022-12-23T08:49:23.615Z,118.99
2022-12-23T08:51:50.530Z,118.99
2022-12-23T08:54:19.672Z,118.99
2022-12-23T08:56:46.397Z,118.99
2022-12-23T08:59:19.089Z,118.99
2022-12-23T09:01:47.113Z,118.99
2022-12-23T09:04:13.981Z,118.99
2022-12-23T09:06:42.561Z,118.99
2022-12-23T09:09:11.938Z,118.99
2022-12-23T09:11:38.978Z,118.99
2022-12-23T09:14:08.755Z,118.99
2022-12-23T09:16:36.399Z,118.99
2022-12-23T09:19:04.556Z,118.43
2022-12-23T09:21:31.635Z,118.46
2022-12-23T09:23:58.454Z,118.73
2022-12-23T09:26:29.788Z,118.02
2022-12-23T09:28:56.830Z,118.15
2022-12-23T09:31:26.705Z,117.53
2022-12-23T09:33:56.277Z,118.02
2022-12-23T09:36:23.284Z,118.05
2022-12-23T09:38:57.630Z,118.07
2022-12-23T09:42:23.732Z,117.89
2022-12-23T09:45:13.021Z,117.83
2022-12-23T09:47:41.401Z,117.69
2022-12-23T09:50:32.114Z,118.17
2022-12-23T09:53:04.379Z,118.24
2022-12-23T09:55:47.777Z,118.76
2022-12-23T09:58:43.472Z,118.28
2022-12-23T10:01:29.291Z,117.44
2022-12-23T10:04:32.744Z,117.44
2022-12-23T10:07:05.698Z,117.31
2022-12-23T10:09:37.216Z,118.43
2022-12-23T10:12:37.373Z,118.99
2022-12-23T10:15:22.480Z,118.99
2022-12-23T10:17:54.656Z,118.99
2022-12-23T10:20:37.821Z,118.99
2022-12-23T10:23:10.804Z,118.99
2022-12-23T10:25:43.706Z,118.58
2022-12-23T10:28:11.198Z,118.99
2022-12-23T10:33:57.339Z,118.84
2022-12-23T10:36:33.327Z,118.60
2022-12-23T10:39:15.315Z,118.76
2022-12-23T10:42:11.291Z,118.99
2022-12-23T10:45:04.485Z,118.73
2022-12-23T10:47:49.190Z,118.31
2022-12-23T10:50:16.063Z,117.92
2022-12-23T10:52:46.186Z,117.76
2022-12-23T10:55:32.940Z,117.76
2022-12-23T10:58:07.898Z,117.45
2022-12-23T11:00:38.863Z,117.31
2022-12-23T11:03:05.679Z,117.34
2022-12-23T11:05:34.406Z,117.94
2022-12-23T11:08:01.878Z,116.99
2022-12-23T11:10:33.042Z,116.75
2022-12-23T11:13:00.743Z,116.55
2022-12-23T11:15:30.457Z,116.75
2022-12-23T11:18:07.257Z,116.42
2022-12-23T11:20:36.578Z,115.25
2022-12-23T11:23:06.027Z,114.81
2022-12-23T11:25:43.612Z,114.47
2022-12-23T11:28:10.417Z,113.90
2022-12-23T11:30:55.566Z,113.67
2022-12-23T11:33:25.205Z,113.50
2022-12-23T11:36:07.871Z,112.62
2022-12-23T11:38:37.662Z,112.16
2022-12-23T11:41:05.389Z,112.37
2022-12-23T11:43:32.950Z,112.42
2022-12-23T11:46:19.213Z,111.81
2022-12-23T11:48:51.331Z,112.32
2022-12-23T11:51:26.757Z,111.94
2022-12-23T11:54:00.314Z,110.39
2022-12-23T11:56:28.449Z,110.49
2022-12-23T11:59:04.361Z,109.58
2022-12-23T12:01:31.510Z,109.46
2022-12-23T12:04:03.000Z,109.91
2022-12-23T12:06:32.533Z,109.83
2022-12-23T12:09:01.314Z,110.17
2022-12-23T12:11:48.849Z,110.40
2022-12-23T12:14:24.715Z,109.62
2022-12-23T12:17:08.667Z,110.42
2022-12-23T12:19:42.627Z,110.20
2022-12-23T12:22:21.404Z,111.12
2022-12-23T12:24:52.784Z,111.17
2022-12-23T12:27:26.721Z,111.71
2022-12-23T12:29:57.610Z,111.36
2022-12-23T12:32:44.608Z,111.54
2022-12-23T12:35:58.946Z,111.32
2022-12-23T12:38:34.459Z,109.11
2022-12-23T12:41:31.797Z,108.52
2022-12-23T12:44:04.768Z,108.50
2022-12-23T12:46:47.171Z,109.40
2022-12-23T12:49:21.064Z,110.15
2022-12-23T12:52:13.732Z,110.04
2022-12-23T12:55:05.041Z,110.46
2022-12-23T12:57:36.215Z,109.52
2022-12-23T13:00:06.940Z,109.72
2022-12-23T13:03:03.857Z,109.04
2022-12-23T13:06:03.179Z,109.43
2022-12-23T13:08:51.671Z,110.43
2022-12-23T13:11:30.588Z,109.92
2022-12-23T13:14:00.419Z,110.71
2022-12-23T13:16:58.377Z,111.07
2022-12-23T13:19:51.407Z,110.28
2022-12-23T13:22:28.513Z,110.33
2022-12-23T13:25:04.170Z,110.90
2022-12-23T13:27:38.046Z,111.55
2022-12-23T13:30:17.913Z,110.06
2022-12-23T13:33:08.270Z,113.82
2022-12-23T13:35:45.238Z,110.44
2022-12-23T13:38:17.991Z,111.81
2022-12-23T13:41:08.935Z,111.85
2022-12-23T13:44:00.180Z,109.96
2022-12-23T13:46:36.036Z,110.69
2022-12-23T13:49:14.694Z,110.62
2022-12-23T13:51:57.572Z,110.32
2022-12-23T13:54:57.022Z,111.04
2022-12-23T13:57:51.743Z,111.47
2022-12-23T14:00:19.324Z,111.55
2022-12-23T14:03:02.090Z,112.25
2022-12-23T14:05:45.357Z,112.09
2022-12-23T14:08:18.345Z,112.39
2022-12-23T14:11:10.592Z,112.97
2022-12-23T14:13:43.823Z,113.00
2022-12-23T14:16:48.346Z,113.35
2022-12-23T14:19:37.041Z,113.71
2022-12-23T14:22:06.917Z,114.10
2022-12-23T14:25:11.382Z,114.56
2022-12-23T14:27:59.975Z,114.93
2022-12-23T14:30:41.189Z,115.08
2022-12-23T14:33:28.559Z,115.19
2022-12-23T14:36:34.187Z,115.28
2022-12-23T14:39:13.273Z,115.74
2022-12-23T14:41:50.988Z,116.05
2022-12-23T14:44:22.412Z,116.20
2022-12-23T14:46:50.087Z,116.12
2022-12-23T14:49:40.352Z,116.72
2022-12-23T14:52:50.213Z,116.62
2022-12-23T14:55:31.547Z,116.55
2022-12-23T14:58:17.213Z,116.70
2022-12-23T15:00:50.572Z,116.64
2022-12-23T15:03:20.177Z,116.96
2022-12-23T15:05:47.206Z,117.15
2022-12-23T15:08:39.329Z,116.99
2022-12-23T15:11:09.493Z,116.24
2022-12-23T15:13:37.214Z,116.63
2022-12-23T15:16:04.121Z,117.60
2022-12-23T15:18:30.973Z,118.11
2022-12-23T15:21:02.535Z,117.93
2022-12-23T15:23:29.991Z,117.73
2022-12-23T15:26:00.961Z,117.59
2022-12-23T15:28:39.340Z,117.34
2022-12-23T15:31:16.111Z,116.36
2022-12-23T15:34:04.103Z,115.86
2022-12-23T15:36:36.984Z,116.52
2022-12-23T15:39:10.534Z,116.52
2022-12-23T15:41:45.313Z,116.86
2022-12-23T15:44:21.977Z,116.55
2022-12-23T15:46:50.567Z,116.26
2022-12-23T15:49:19.815Z,116.39
2022-12-23T15:52:08.763Z,116.15
2022-12-23T15:54:47.781Z,116.34
2022-12-23T15:57:20.366Z,116.06
2022-12-23T15:59:47.696Z,115.76
2022-12-23T16:05:11.020Z,116.09
2022-12-23T16:07:40.985Z,116.34
2022-12-23T16:10:16.685Z,116.88
2022-12-23T16:12:44.083Z,116.99
2022-12-23T16:15:26.648Z,116.60
2022-12-23T16:18:20.773Z,116.58
2022-12-23T16:21:03.650Z,116.25
2022-12-23T16:23:36.449Z,118.99
2022-12-23T16:26:04.042Z,118.87
2022-12-23T16:28:40.358Z,113.15
2022-12-23T16:31:09.944Z,115.81
2022-12-23T16:33:49.152Z,116.44
2022-12-23T16:36:20.344Z,116.60
2022-12-23T16:38:49.309Z,116.75
2022-12-23T16:41:19.656Z,116.73
2022-12-23T16:43:51.811Z,116.30
2022-12-23T16:46:22.137Z,115.81
2022-12-23T16:49:00.843Z,115.99
2022-12-23T16:51:30.674Z,115.95
2022-12-23T16:53:57.779Z,116.06
2022-12-23T16:56:29.830Z,116.02
2022-12-23T16:58:57.522Z,116.66
2022-12-23T17:01:30.790Z,116.98
2022-12-23T17:03:57.823Z,116.89
2022-12-23T17:06:25.391Z,116.69
2022-12-23T17:08:56.964Z,116.25
2022-12-23T17:11:29.192Z,116.61
2022-12-23T17:14:03.262Z,116.95
2022-12-23T17:16:31.059Z,116.64
2022-12-23T17:19:00.635Z,116.84
2022-12-23T17:21:34.371Z,116.69
2022-12-23T17:24:11.929Z,116.62
2022-12-23T17:26:38.677Z,116.63
2022-12-23T17:29:06.001Z,116.63
2022-12-23T17:31:34.586Z,116.69
2022-12-23T17:34:01.910Z,116.56
2022-12-23T17:36:29.193Z,116.91
2022-12-23T17:38:56.022Z,116.68
2022-12-23T17:41:31.728Z,116.88
2022-12-23T17:43:58.940Z,116.93
2022-12-23T17:46:26.722Z,116.63
2022-12-23T17:48:53.810Z,116.83
2022-12-23T17:51:22.886Z,117.01
2022-12-23T17:53:56.879Z,117.47
2022-12-23T17:56:25.942Z,116.78
2022-12-23T17:58:52.688Z,116.55
2022-12-23T18:01:21.954Z,116.76
2022-12-23T18:03:48.806Z,117.39
2022-12-23T18:06:17.907Z,117.51
2022-12-23T18:08:45.424Z,117.65
2022-12-23T18:11:31.383Z,116.89
2022-12-23T18:13:58.228Z,116.60
2022-12-23T18:16:25.184Z,116.87
2022-12-23T18:18:52.931Z,117.07
2022-12-23T18:21:26.269Z,117.02
2022-12-23T18:23:55.476Z,116.90
2022-12-23T18:26:22.379Z,116.97
2022-12-23T18:28:55.175Z,116.99
2022-12-23T18:31:24.188Z,116.96
2022-12-23T18:33:51.775Z,116.96
2022-12-23T18:36:37.753Z,117.42
2022-12-23T18:39:04.508Z,117.60
2022-12-23T18:41:31.227Z,117.82
2022-12-23T18:43:58.044Z,117.76
2022-12-23T18:46:24.865Z,117.54
2022-12-23T18:48:51.821Z,118.99
2022-12-23T18:51:21.386Z,118.99
2022-12-23T18:53:49.402Z,118.99
2022-12-23T18:56:20.968Z,118.99
2022-12-23T18:58:47.839Z,118.99
2022-12-23T19:01:16.572Z,118.99
2022-12-23T19:03:43.354Z,118.99
2022-12-23T19:06:13.433Z,118.99
2022-12-23T19:08:41.633Z,118.99
2022-12-23T19:11:18.189Z,118.99
2022-12-23T19:13:45.695Z,118.99
2022-12-23T19:16:19.825Z,118.99
2022-12-23T19:18:48.067Z,118.99
2022-12-23T19:21:15.790Z,118.99
2022-12-23T19:23:42.545Z,118.99
2022-12-23T19:26:11.161Z,118.99
2022-12-23T19:28:39.024Z,118.99
2022-12-23T19:31:11.225Z,118.99
2022-12-23T19:33:38.762Z,118.99
2022-12-23T19:36:14.726Z,118.99
2022-12-23T19:38:42.974Z,118.99
2022-12-23T19:41:10.516Z,118.99
2022-12-23T19:43:38.508Z,118.99
2022-12-23T19:46:08.397Z,118.99
2022-12-23T19:48:36.468Z,118.99
2022-12-23T19:51:09.254Z,118.99
2022-12-23T19:53:36.959Z,118.99
2022-12-23T19:56:11.883Z,118.99
2022-12-23T19:58:40.853Z,118.99
2022-12-23T20:01:15.477Z,118.99
2022-12-23T20:03:43.925Z,118.99
2022-12-23T20:06:25.792Z,118.99
2022-12-23T20:08:59.790Z,118.82
2022-12-23T20:11:30.544Z,118.67
2022-12-23T20:14:00.574Z,118.69
2022-12-23T20:16:28.745Z,118.66
2022-12-23T20:18:56.198Z,118.41
2022-12-23T20:21:23.572Z,118.19
2022-12-23T20:23:50.683Z,117.93
2022-12-23T20:26:18.853Z,117.81
2022-12-23T20:28:46.638Z,118.18
2022-12-23T20:31:21.109Z,117.99
2022-12-23T20:33:49.705Z,117.88
2022-12-23T20:36:19.547Z,117.79
2022-12-23T20:38:47.449Z,118.08
2022-12-23T20:41:20.504Z,118.47
2022-12-23T20:44:02.793Z,118.99
2022-12-23T20:46:34.985Z,118.99
2022-12-23T20:49:01.869Z,118.99
2022-12-23T20:51:28.701Z,118.99
2022-12-23T20:53:59.807Z,118.86
2022-12-23T20:56:29.252Z,118.89
2022-12-23T20:58:58.609Z,118.62
2022-12-23T21:01:31.654Z,118.86
2022-12-23T21:04:01.436Z,118.58
2022-12-23T21:06:30.453Z,118.90
2022-12-23T21:08:59.538Z,118.81
2022-12-23T21:11:31.746Z,118.63
2022-12-23T21:14:06.179Z,118.60
2022-12-23T21:16:38.109Z,118.44
2022-12-23T21:19:07.162Z,118.31
2022-12-23T21:21:34.135Z,118.50
2022-12-23T21:24:04.498Z,118.99
2022-12-23T21:26:33.356Z,118.99
2022-12-23T21:29:04.232Z,118.99
2022-12-23T21:31:32.529Z,118.99
2022-12-23T21:33:59.300Z,118.99
2022-12-23T21:36:31.321Z,118.99
2022-12-23T21:38:59.033Z,118.99
2022-12-23T21:41:31.015Z,118.99
2022-12-23T21:43:58.036Z,118.99
2022-12-23T21:46:26.245Z,118.94
2022-12-23T21:48:55.202Z,118.99
2022-12-23T21:51:25.350Z,118.99
2022-12-23T21:53:54.196Z,118.99
2022-12-23T21:56:29.308Z,118.99
2022-12-23T21:59:08.081Z,118.99
2022-12-23T22:01:35.092Z,118.99
2022-12-23T22:04:02.137Z,118.99
2022-12-23T22:06:31.973Z,118.99
2022-12-23T22:08:59.632Z,118.99
2022-12-23T22:11:31.279Z,118.99
2022-12-23T22:14:02.779Z,118.99
2022-12-23T22:16:30.500Z,118.99
2022-12-23T22:18:58.415Z,118.99
2022-12-23T22:21:27.893Z,118.99
2022-12-23T22:23:56.262Z,118.99
2022-12-23T22:26:28.980Z,118.99
2022-12-23T22:28:57.605Z,118.99
2022-12-23T22:31:39.814Z,118.99
2022-12-23T22:34:08.221Z,118.99
2022-12-23T22:36:37.936Z,118.99
2022-12-23T22:39:06.578Z,118.99
2022-12-23T22:41:34.542Z,118.99
2022-12-23T22:44:01.400Z,118.86
2022-12-23T22:46:28.911Z,118.75
2022-12-23T22:48:56.967Z,118.61
2022-12-23T22:51:26.642Z,118.50
2022-12-23T22:53:53.897Z,118.48
2022-12-23T22:56:21.984Z,118.40
2022-12-23T22:58:50.061Z,118.40
2022-12-23T23:01:22.819Z,118.48
2022-12-23T23:03:56.669Z,118.40
2022-12-23T23:06:34.911Z,118.64
2022-12-23T23:09:01.800Z,118.69
2022-12-23T23:11:29.431Z,118.82
2022-12-23T23:13:57.212Z,118.99
2022-12-23T23:16:24.986Z,118.99
2022-12-23T23:18:52.710Z,118.99
2022-12-23T23:21:19.791Z,118.86
2022-12-23T23:23:46.528Z,118.77
2022-12-23T23:26:13.435Z,118.65
2022-12-23T23:28:40.882Z,118.84
2022-12-23T23:33:57.900Z,118.50
2022-12-23T23:36:25.032Z,118.34
2022-12-23T23:38:55.416Z,118.22
2022-12-23T23:41:26.302Z,118.96
2022-12-23T23:43:53.440Z,118.99
2022-12-23T23:46:20.316Z,118.95
2022-12-23T23:48:47.730Z,118.88
2022-12-23T23:51:14.448Z,118.72
2022-12-23T23:53:44.594Z,118.92
2022-12-23T23:56:12.523Z,118.83
2022-12-23T23:58:39.331Z,118.99
